Yeoman Bontrup — C6JQ9 — position and weather

sailwx.info

Track history (hours):
 
Tides and Currents Weather Stations Pressure Air Temp Water Temp Dewpoint Dewpoint Depression Visibility Wind Speed Wind Dir Waves Ship Positions

Yeoman Bontrup

Last reported at 2018-May-24 21:00 UTC. Time now 2018-May-24 21:05 UTC.
Position N 52°25' E 004°47'.

Length 250 m; draft 13.7 m.

Type: Cargo ship. MMSI: 308918000.

Date/timePositionNaut miles runAvg speedWind from/ knotsBaromVisibWave heightAir tempDewpointWater temp
2018-May-24 21:00N 52°25' E 004°47'0 0.0
2018-May-24 20:30N 52°25' E 004°47'0 0.0
2018-May-24 20:00N 52°25' E 004°47'0 0.0
2018-May-24 19:30N 52°25' E 004°47'0 0.0
2018-May-24 19:00N 52°25' E 004°47'0 0.0
2018-May-24 18:30N 52°25' E 004°47'0 0.0
2018-May-24 18:00N 52°25' E 004°47'0 0.0
2018-May-24 17:30N 52°25' E 004°47'0 0.0
2018-May-24 17:00N 52°25' E 004°47'0 0.0
2018-May-24 16:30N 52°25' E 004°47'0 0.0
2018-May-24 16:00N 52°25' E 004°47'0 0.2
2018-May-24 15:30N 52°25' E 004°47'1 2.9
2018-May-24 15:00N 52°26' E 004°45'3 6.2
2018-May-24 14:30N 52°27' E 004°41'3 5.0
2018-May-24 14:01N 52°28' E 004°37'0 0.6
2018-May-24 13:30N 52°28' E 004°36'29 6.4
2018-May-24 09:00N 52°46' E 003°59'510.5
2018-May-24 08:30N 52°51' E 003°58'611.0
2018-May-24 08:00N 52°56' E 003°60'611.3
2018-May-24 07:30N 53°00' E 004°07'611.9
2018-May-24 07:00N 53°04' E 004°14'612.1
2018-May-24 06:30N 53°08' E 004°22'611.8
2018-May-24 06:00N 53°13' E 004°27'611.9
2018-May-24 05:30N 53°19' E 004°30'611.7
2018-May-24 05:00N 53°24' E 004°33'611.6
2018-May-24 04:30N 53°30' E 004°35'611.5
2018-May-24 04:00N 53°35' E 004°38'611.0
2018-May-24 03:30N 53°41' E 004°42'611.1
2018-May-24 03:00N 53°46' E 004°45'611.1
2018-May-24 02:30N 53°51' E 004°49'511.0
2018-May-24 02:00N 53°56' E 004°52'611.1
2018-May-24 01:30N 54°01' E 004°56'611.2
2018-May-24 01:00N 54°06' E 004°58'611.2
2018-May-24 00:30N 54°12' E 004°58'611.3
2018-May-24 00:00N 54°18' E 004°58'611.3
2018-May-23 23:30N 54°23' E 004°56'611.3
2018-May-23 23:00N 54°29' E 004°55'611.2
2018-May-23 22:30N 54°34' E 004°53'611.2
2018-May-23 22:00N 54°40' E 004°52'511.2
2018-May-23 21:30N 54°45' E 004°50'611.2
2018-May-23 21:00N 54°51' E 004°49'611.1
2018-May-23 20:30N 54°56' E 004°47'611.2
2018-May-23 20:00N 55°02' E 004°45'611.1
2018-May-23 19:30N 55°07' E 004°43'611.1
2018-May-23 19:00N 55°13' E 004°41'611.3
2018-May-23 18:30N 55°18' E 004°40'611.3
2018-May-23 18:00N 55°24' E 004°38'611.3
2018-May-23 17:29N 55°30' E 004°36'16611.9
2018-May-23 03:33N 58°15' E 004°09'412.1
2018-May-23 03:14N 58°19' E 004°09'312.1
2018-May-23 03:00N 58°22' E 004°08'612.3
2018-May-23 02:30N 58°28' E 004°07'611.8
2018-May-23 02:00N 58°34' E 004°07'611.6
2018-May-23 01:30N 58°40' E 004°06'611.6
2018-May-23 01:00N 58°45' E 004°05'611.8
2018-May-23 00:30N 58°51' E 004°05'611.9
2018-May-23 00:00N 58°57' E 004°04'711.7
2018-May-22 23:23N 59°05' E 004°04'511.6
2018-May-22 22:58N 59°09' E 004°04'1311.8
2018-May-22 21:49N 59°23' E 004°04'511.8
2018-May-22 21:26N 59°27' E 004°03'511.5
2018-May-22 21:00N 59°32' E 004°03'611.2
2018-May-22 20:29N 59°38' E 004°03'811.4
2018-May-22 19:47N 59°46' E 004°01'1510.7
2018-May-22 18:21N 60°01' E 004°03'9511.4
2018-May-22 10:03N 61°36' E 004°21'011.3
2018-May-22 10:00N 61°36' E 004°22'510.1
2018-May-22 09:30N 61°41' E 004°27'611.4
2018-May-22 09:00N 61°42' E 004°39'511.1
2018-May-22 08:30N 61°43' E 004°50'611.1
2018-May-22 08:00N 61°46' E 005°01'4 7.9
2018-May-22 07:30N 61°46' E 005°09'1 1.2
2018-May-22 07:00N 61°46' E 005°10'0 0.0
2018-May-22 06:30N 61°46' E 005°10'0 0.0
2018-May-22 06:00N 61°46' E 005°10'0 0.0
2018-May-22 05:30N 61°46' E 005°10'0 0.0
2018-May-22 04:57N 61°46' E 005°10'0 0.0
2018-May-22 04:30N 61°46' E 005°10'0 0.0
2018-May-22 04:00N 61°46' E 005°10'0 0.0
2018-May-22 03:30N 61°46' E 005°10'0 0.0
2018-May-22 03:00N 61°46' E 005°10'0 0.0
2018-May-22 02:30N 61°46' E 005°10'0 0.0
2018-May-22 02:00N 61°46' E 005°10'0 0.0
2018-May-22 01:27N 61°46' E 005°10'0 0.0
2018-May-22 01:00N 61°46' E 005°10'0 0.0
2018-May-22 00:30N 61°46' E 005°10'0 0.0
2018-May-22 00:00N 61°46' E 005°10'0 0.0
2018-May-21 23:30N 61°46' E 005°10'0 0.0
2018-May-21 23:00N 61°46' E 005°10'0 0.0
2018-May-21 22:30N 61°46' E 005°10'0 0.0
2018-May-21 22:00N 61°46' E 005°10'0 0.0
2018-May-21 21:30N 61°46' E 005°10'0 0.0
2018-May-21 21:00N 61°46' E 005°10'0 0.0
2018-May-21 20:30N 61°46' E 005°10'0 0.0
2018-May-21 20:00N 61°46' E 005°10'0 0.0
2018-May-21 19:30N 61°46' E 005°10'0 0.0
2018-May-21 18:51N 61°46' E 005°10'0 0.0
2018-May-21 18:30N 61°46' E 005°10'0 0.0
2018-May-21 17:57N 61°46' E 005°10'0 0.0
2018-May-21 17:30N 61°46' E 005°10'0 0.0
2018-May-21 17:00N 61°46' E 005°10'0 0.0
2018-May-21 16:30N 61°46' E 005°10'0 0.0
2018-May-21 15:54N 61°46' E 005°10'0 0.0
2018-May-21 15:30N 61°46' E 005°10'0 0.0
2018-May-21 15:00N 61°46' E 005°10'0 0.0
2018-May-21 14:30N 61°46' E 005°10'0 0.0
2018-May-21 14:00N 61°46' E 005°10'0 0.0
2018-May-21 13:30N 61°46' E 005°10'0 0.0
2018-May-21 13:00N 61°46' E 005°10'0 0.0
2018-May-21 12:30N 61°46' E 005°10'0 0.0
2018-May-21 12:00N 61°46' E 005°10'0 0.0
2018-May-21 11:30N 61°46' E 005°10'0 0.0
2018-May-21 11:00N 61°46' E 005°10'0 0.0
2018-May-21 10:30N 61°46' E 005°10'0 0.0
2018-May-21 10:00N 61°46' E 005°10'0 0.0
2018-May-21 09:27N 61°46' E 005°10'0 0.0
2018-May-21 09:00N 61°46' E 005°10'0 0.0
2018-May-21 08:30N 61°46' E 005°10'0 0.0
2018-May-21 08:00N 61°46' E 005°10'0 0.0
2018-May-21 07:30N 61°46' E 005°10'0 0.0
2018-May-21 07:00N 61°46' E 005°10'0 0.0
2018-May-21 06:30N 61°46' E 005°10'0 0.0
2018-May-21 06:00N 61°46' E 005°10'0 0.0
2018-May-21 05:30N 61°46' E 005°10'0 0.0
2018-May-21 05:00N 61°46' E 005°10'0 0.0
2018-May-21 04:30N 61°46' E 005°10'0 0.0
2018-May-21 04:00N 61°46' E 005°10'0 0.0
2018-May-21 03:29N 61°46' E 005°10'0 0.0
2018-May-21 03:00N 61°46' E 005°10'0 0.0
2018-May-21 02:29N 61°46' E 005°10'0 0.0
2018-May-21 02:00N 61°46' E 005°10'0 0.0
2018-May-21 01:29N 61°46' E 005°10'0 0.0
2018-May-21 01:00N 61°46' E 005°10'0 0.0
2018-May-21 00:30N 61°46' E 005°10'0 0.0
2018-May-21 00:00N 61°46' E 005°10'0 0.0
2018-May-20 23:30N 61°46' E 005°10'0 0.0
2018-May-20 23:00N 61°46' E 005°10'0 0.0
2018-May-20 22:30N 61°46' E 005°10'0 0.1
2018-May-20 22:00N 61°46' E 005°10'0 0.4
2018-May-20 21:30N 61°46' E 005°10'2 3.7
2018-May-20 21:00N 61°45' E 005°07'5 9.2
2018-May-20 20:30N 61°45' E 004°57'510.6
2018-May-20 20:00N 61°42' E 004°48'611.8
2018-May-20 19:28N 61°42' E 004°34'612.3
2018-May-20 19:00N 61°39' E 004°23'11513.1
2018-May-20 10:15N 59°45' E 004°13'613.4
2018-May-20 09:47N 59°38' E 004°13'1413.4
2018-May-20 08:43N 59°24' E 004°13'413.4
2018-May-20 08:27N 59°21' E 004°13'613.4
2018-May-20 08:00N 59°15' E 004°13'713.3
2018-May-20 07:28N 59°07' E 004°13'613.5
2018-May-20 07:00N 59°01' E 004°13'713.5
2018-May-20 06:30N 58°54' E 004°16'713.1
2018-May-20 06:00N 58°48' E 004°19'612.7
2018-May-20 05:30N 58°42' E 004°22'612.8
2018-May-20 05:00N 58°36' E 004°26'612.8
2018-May-20 04:30N 58°30' E 004°30'713.2
2018-May-20 04:00N 58°24' E 004°33'713.2
2018-May-20 03:30N 58°17' E 004°37'713.1
2018-May-20 03:00N 58°11' E 004°40'612.9
2018-May-20 02:30N 58°05' E 004°44'612.4
2018-May-20 02:00N 57°59' E 004°47'612.3
2018-May-20 01:30N 57°53' E 004°51'612.7
2018-May-20 01:00N 57°47' E 004°54'713.2
2018-May-20 00:30N 57°41' E 004°58'713.2
2018-May-20 00:00N 57°34' E 005°01'713.4
2018-May-19 23:30N 57°28' E 005°06'713.0
2018-May-19 23:00N 57°22' E 005°11'613.0
2018-May-19 22:30N 57°16' E 005°15'712.8
2018-May-19 21:59N 57°10' E 005°16'613.2
2018-May-19 21:30N 57°03' E 005°19'713.1
2018-May-19 21:00N 56°57' E 005°23'613.0
2018-May-19 20:30N 56°51' E 005°26'612.9
2018-May-19 20:00N 56°45' E 005°30'612.7
2018-May-19 19:30N 56°38' E 005°32'612.9
2018-May-19 19:00N 56°32' E 005°31'712.9
2018-May-19 18:30N 56°25' E 005°29'612.9
2018-May-19 18:00N 56°19' E 005°28'712.9
2018-May-19 17:27N 56°12' E 005°27'613.0
2018-May-19 17:00N 56°06' E 005°26'713.1
2018-May-19 16:25N 55°59' E 005°25'513.0
2018-May-19 16:00N 55°53' E 005°25'713.2
2018-May-19 15:29N 55°46' E 005°23'713.0
2018-May-19 14:59N 55°40' E 005°22'613.0
2018-May-19 14:30N 55°34' E 005°21'612.9
2018-May-19 14:00N 55°27' E 005°21'612.8
2018-May-19 13:30N 55°21' E 005°20'10212.2
2018-May-19 05:06N 53°40' E 004°51'111.8
2018-May-19 04:59N 53°39' E 004°51'611.6
2018-May-19 04:30N 53°33' E 004°48'611.2
2018-May-19 04:00N 53°28' E 004°44'611.0
2018-May-19 03:30N 53°23' E 004°40'611.2
2018-May-19 03:00N 53°18' E 004°37'611.1
2018-May-19 02:30N 53°13' E 004°33'611.1
2018-May-19 02:00N 53°08' E 004°29'611.3
2018-May-19 01:30N 53°03' E 004°24'611.2
2018-May-19 01:00N 52°59' E 004°19'611.0
2018-May-19 00:30N 52°53' E 004°15'511.1
2018-May-19 00:00N 52°48' E 004°11'511.0
2018-May-18 23:30N 52°43' E 004°08'611.0
2018-May-18 23:00N 52°38' E 004°06'510.5
2018-May-18 22:30N 52°33' E 004°08'612.2
2018-May-18 22:00N 52°30' E 004°18'611.4
2018-May-18 21:30N 52°28' E 004°26'5 9.9
2018-May-18 21:01N 52°28' E 004°34'1 2.6
2018-May-18 20:30N 52°28' E 004°37'1 3.0
2018-May-18 20:00N 52°28' E 004°39'3 6.4
2018-May-18 19:30N 52°26' E 004°43'2 4.3
2018-May-18 19:01N 52°25' E 004°46'1 1.0
2018-May-18 18:28N 52°25' E 004°47'0 0.0
2018-May-18 17:58N 52°25' E 004°47'0 0.0
2018-May-18 17:28N 52°25' E 004°47'0 0.0
2018-May-18 16:58N 52°25' E 004°47'0 0.0
2018-May-18 16:28N 52°25' E 004°47'0 0.0
2018-May-18 15:58N 52°25' E 004°47'0 0.0
2018-May-18 15:28N 52°25' E 004°47'0 0.0
2018-May-18 14:58N 52°25' E 004°47'0 0.0
2018-May-18 14:28N 52°25' E 004°47'0 0.0
2018-May-18 13:58N 52°25' E 004°47'0 0.0
2018-May-18 13:28N 52°25' E 004°47'0 0.0
2018-May-18 12:58N 52°25' E 004°47'0 0.0
2018-May-18 12:28N 52°25' E 004°47'0 0.0
2018-May-18 11:58N 52°25' E 004°47'0 0.0
2018-May-18 11:28N 52°25' E 004°47'0 0.0
2018-May-18 10:58N 52°25' E 004°47'0 0.0
2018-May-18 10:28N 52°25' E 004°47'0 0.0
2018-May-18 09:58N 52°25' E 004°47'0 0.0
2018-May-18 09:28N 52°25' E 004°47'0 0.0
2018-May-18 08:58N 52°25' E 004°47'0 0.0
2018-May-18 08:28N 52°25' E 004°47'0 0.0
2018-May-18 07:58N 52°25' E 004°47'0 0.0
2018-May-18 07:28N 52°25' E 004°47'0 0.0
2018-May-18 06:58N 52°25' E 004°47'0 0.0
2018-May-18 06:28N 52°25' E 004°47'0 0.0
2018-May-18 05:58N 52°25' E 004°47'0 0.0
2018-May-18 05:28N 52°25' E 004°47'0 0.0
2018-May-18 04:58N 52°25' E 004°47'0 0.0
2018-May-18 04:28N 52°25' E 004°47'0 0.0
2018-May-18 03:58N 52°25' E 004°47'0 0.0
2018-May-18 03:28N 52°25' E 004°47'0 0.0
2018-May-18 02:58N 52°25' E 004°47'0 0.0
2018-May-18 02:28N 52°25' E 004°47'0 0.0
2018-May-18 01:58N 52°25' E 004°47'0 0.0
2018-May-18 01:28N 52°25' E 004°47'0 0.0
2018-May-18 00:58N 52°25' E 004°47'0 0.0
2018-May-18 00:28N 52°25' E 004°47'0 0.0
2018-May-17 23:58N 52°25' E 004°47'0 0.0
2018-May-17 23:28N 52°25' E 004°47'0 0.0
2018-May-17 22:58N 52°25' E 004°47'0 0.0
2018-May-17 22:28N 52°25' E 004°47'0 0.0
2018-May-17 21:58N 52°25' E 004°47'0 0.0
2018-May-17 21:28N 52°25' E 004°47'0 0.0
2018-May-17 20:58N 52°25' E 004°47'0 0.0
2018-May-17 20:28N 52°25' E 004°47'0 0.0
2018-May-17 19:58N 52°25' E 004°47'0 0.0
2018-May-17 19:28N 52°25' E 004°47'0 0.0
2018-May-17 18:58N 52°25' E 004°47'0 0.0
2018-May-17 18:28N 52°25' E 004°47'0 0.0
2018-May-17 17:58N 52°25' E 004°47'0 0.0
2018-May-17 17:28N 52°25' E 004°47'0 0.0
2018-May-17 16:58N 52°25' E 004°47'0 0.0
2018-May-17 16:28N 52°25' E 004°47'0 0.0
2018-May-17 15:58N 52°25' E 004°47'0 0.0
2018-May-17 15:28N 52°25' E 004°47'0 0.0
2018-May-17 14:58N 52°25' E 004°47'0 0.0
2018-May-17 14:28N 52°25' E 004°47'0 0.0
2018-May-17 13:58N 52°25' E 004°47'0 0.0
2018-May-17 13:28N 52°25' E 004°47'0 0.0
2018-May-17 12:58N 52°25' E 004°47'0 0.0
2018-May-17 12:28N 52°25' E 004°47'0 0.0
2018-May-17 11:58N 52°25' E 004°47'0 0.0
2018-May-17 11:28N 52°25' E 004°47'0 0.0
2018-May-17 10:58N 52°25' E 004°47'0 0.0
2018-May-17 10:28N 52°25' E 004°47'0 0.0
2018-May-17 10:00N 52°25' E 004°47'0 1.0
2018-May-17 09:30N 52°25' E 004°46'2 4.7
2018-May-17 09:00N 52°26' E 004°43'3 6.3
2018-May-17 08:30N 52°28' E 004°39'1 2.8
2018-May-17 08:01N 52°28' E 004°36'0 0.3
2018-May-17 07:30N 52°28' E 004°36'2 3.6
2018-May-17 07:01N 52°28' E 004°33'510.0
2018-May-17 06:30N 52°29' E 004°25'4 8.1
2018-May-17 06:00N 52°29' E 004°19'510.5
2018-May-17 05:30N 52°30' E 004°10'510.3
2018-May-17 05:00N 52°34' E 004°05'511.0
2018-May-17 04:30N 52°39' E 004°01'610.9
2018-May-17 04:00N 52°44' E 003°57'610.9
2018-May-17 03:29N 52°49' E 003°52'510.8
2018-May-17 03:00N 52°53' E 003°47'611.2
2018-May-17 02:29N 52°58' E 003°41'511.3
2018-May-17 02:01N 53°02' E 003°36'611.2
2018-May-17 01:30N 53°07' E 003°31'611.1
2018-May-17 01:00N 53°11' E 003°25'611.3
2018-May-17 00:29N 53°16' E 003°18'611.3
2018-May-16 23:56N 53°20' E 003°11'611.4
2018-May-16 23:24N 53°24' E 003°04'611.5
2018-May-16 22:53N 53°29' E 002°57'511.4
2018-May-16 22:28N 53°31' E 002°50'511.5
2018-May-16 22:00N 53°34' E 002°42'712.2
2018-May-16 21:23N 53°40' E 002°35'512.4
2018-May-16 20:59N 53°44' E 002°30'612.5
2018-May-16 20:30N 53°48' E 002°24'612.5
2018-May-16 20:00N 53°53' E 002°17'612.9
2018-May-16 19:30N 53°58' E 002°09'612.5
2018-May-16 19:00N 54°02' E 002°02'612.4
2018-May-16 18:30N 54°06' E 001°54'612.9
2018-May-16 18:00N 54°11' E 001°45'612.9
2018-May-16 17:30N 54°15' E 001°38'612.8
2018-May-16 17:00N 54°19' E 001°30'812.7
2018-May-16 16:22N 54°26' E 001°20'712.6
2018-May-16 15:47N 54°31' E 001°12'312.6
2018-May-16 15:30N 54°34' E 001°08'1012.7
2018-May-16 14:42N 54°43' E 001°00'312.5
2018-May-16 14:30N 54°45' E 000°58'18412.4
2018-May-15 23:38N 57°33' W 001°18'214.0
2018-May-15 23:29N 57°34' W 001°20'713.7
2018-May-15 23:00N 57°40' W 001°28'6613.0
2018-May-15 17:57N 58°31' W 002°45'613.1
2018-May-15 17:30N 58°36' W 002°52'612.4
2018-May-15 17:00N 58°40' W 002°60'5 9.7
2018-May-15 16:31N 58°43' W 003°08'5 9.1
2018-May-15 16:00N 58°43' W 003°16'5 9.2
2018-May-15 15:30N 58°43' W 003°25'510.4
2018-May-15 15:00N 58°43' W 003°35'510.4
2018-May-15 14:31N 58°42' W 003°45'5210.0
2018-May-15 09:20N 58°34' W 005°24'  
Track history (hours):
 
Tides and Currents Weather Stations Pressure Air Temp Water Temp Dewpoint Dewpoint Depression Visibility Wind Speed Wind Dir Waves Ship Positions

Yeoman Bontrup

Last reported at 2018-May-24 21:00 UTC. Time now 2018-May-24 21:05 UTC.
Position N 52°25' E 004°47'.

Length 250 m; draft 13.7 m.

Type: Cargo ship. MMSI: 308918000.

Date/timePositionNaut miles runAvg speedWind from/ knotsBaromVisibWave heightAir tempDewpointWater temp
2018-May-24 21:00N 52°25' E 004°47'0 0.0
2018-May-24 20:30N 52°25' E 004°47'0 0.0
2018-May-24 20:00N 52°25' E 004°47'0 0.0
2018-May-24 19:30N 52°25' E 004°47'0 0.0
2018-May-24 19:00N 52°25' E 004°47'0 0.0
2018-May-24 18:30N 52°25' E 004°47'0 0.0
2018-May-24 18:00N 52°25' E 004°47'0 0.0
2018-May-24 17:30N 52°25' E 004°47'0 0.0
2018-May-24 17:00N 52°25' E 004°47'0 0.0
2018-May-24 16:30N 52°25' E 004°47'0 0.0
2018-May-24 16:00N 52°25' E 004°47'0 0.2
2018-May-24 15:30N 52°25' E 004°47'1 2.9
2018-May-24 15:00N 52°26' E 004°45'3 6.2
2018-May-24 14:30N 52°27' E 004°41'3 5.0
2018-May-24 14:01N 52°28' E 004°37'0 0.6
2018-May-24 13:30N 52°28' E 004°36'29 6.4
2018-May-24 09:00N 52°46' E 003°59'510.5
2018-May-24 08:30N 52°51' E 003°58'611.0
2018-May-24 08:00N 52°56' E 003°60'611.3
2018-May-24 07:30N 53°00' E 004°07'611.9
2018-May-24 07:00N 53°04' E 004°14'612.1
2018-May-24 06:30N 53°08' E 004°22'611.8
2018-May-24 06:00N 53°13' E 004°27'611.9
2018-May-24 05:30N 53°19' E 004°30'611.7
2018-May-24 05:00N 53°24' E 004°33'611.6
2018-May-24 04:30N 53°30' E 004°35'611.5
2018-May-24 04:00N 53°35' E 004°38'611.0
2018-May-24 03:30N 53°41' E 004°42'611.1
2018-May-24 03:00N 53°46' E 004°45'611.1
2018-May-24 02:30N 53°51' E 004°49'511.0
2018-May-24 02:00N 53°56' E 004°52'611.1
2018-May-24 01:30N 54°01' E 004°56'611.2
2018-May-24 01:00N 54°06' E 004°58'611.2
2018-May-24 00:30N 54°12' E 004°58'611.3
2018-May-24 00:00N 54°18' E 004°58'611.3
2018-May-23 23:30N 54°23' E 004°56'611.3
2018-May-23 23:00N 54°29' E 004°55'611.2
2018-May-23 22:30N 54°34' E 004°53'611.2
2018-May-23 22:00N 54°40' E 004°52'511.2
2018-May-23 21:30N 54°45' E 004°50'611.2
2018-May-23 21:00N 54°51' E 004°49'611.1
2018-May-23 20:30N 54°56' E 004°47'611.2
2018-May-23 20:00N 55°02' E 004°45'611.1
2018-May-23 19:30N 55°07' E 004°43'611.1
2018-May-23 19:00N 55°13' E 004°41'611.3
2018-May-23 18:30N 55°18' E 004°40'611.3
2018-May-23 18:00N 55°24' E 004°38'611.3
2018-May-23 17:29N 55°30' E 004°36'16611.9
2018-May-23 03:33N 58°15' E 004°09'412.1
2018-May-23 03:14N 58°19' E 004°09'312.1
2018-May-23 03:00N 58°22' E 004°08'612.3
2018-May-23 02:30N 58°28' E 004°07'611.8
2018-May-23 02:00N 58°34' E 004°07'611.6
2018-May-23 01:30N 58°40' E 004°06'611.6
2018-May-23 01:00N 58°45' E 004°05'611.8
2018-May-23 00:30N 58°51' E 004°05'611.9
2018-May-23 00:00N 58°57' E 004°04'711.7
2018-May-22 23:23N 59°05' E 004°04'511.6
2018-May-22 22:58N 59°09' E 004°04'1311.8
2018-May-22 21:49N 59°23' E 004°04'511.8
2018-May-22 21:26N 59°27' E 004°03'511.5
2018-May-22 21:00N 59°32' E 004°03'611.2
2018-May-22 20:29N 59°38' E 004°03'811.4
2018-May-22 19:47N 59°46' E 004°01'1510.7
2018-May-22 18:21N 60°01' E 004°03'9511.4
2018-May-22 10:03N 61°36' E 004°21'011.3
2018-May-22 10:00N 61°36' E 004°22'510.1
2018-May-22 09:30N 61°41' E 004°27'611.4
2018-May-22 09:00N 61°42' E 004°39'511.1
2018-May-22 08:30N 61°43' E 004°50'611.1
2018-May-22 08:00N 61°46' E 005°01'4 7.9
2018-May-22 07:30N 61°46' E 005°09'1 1.2
2018-May-22 07:00N 61°46' E 005°10'0 0.0
2018-May-22 06:30N 61°46' E 005°10'0 0.0
2018-May-22 06:00N 61°46' E 005°10'0 0.0
2018-May-22 05:30N 61°46' E 005°10'0 0.0
2018-May-22 04:57N 61°46' E 005°10'0 0.0
2018-May-22 04:30N 61°46' E 005°10'0 0.0
2018-May-22 04:00N 61°46' E 005°10'0 0.0
2018-May-22 03:30N 61°46' E 005°10'0 0.0
2018-May-22 03:00N 61°46' E 005°10'0 0.0
2018-May-22 02:30N 61°46' E 005°10'0 0.0
2018-May-22 02:00N 61°46' E 005°10'0 0.0
2018-May-22 01:27N 61°46' E 005°10'0 0.0
2018-May-22 01:00N 61°46' E 005°10'0 0.0
2018-May-22 00:30N 61°46' E 005°10'0 0.0
2018-May-22 00:00N 61°46' E 005°10'0 0.0
2018-May-21 23:30N 61°46' E 005°10'0 0.0
2018-May-21 23:00N 61°46' E 005°10'0 0.0
2018-May-21 22:30N 61°46' E 005°10'0 0.0
2018-May-21 22:00N 61°46' E 005°10'0 0.0
2018-May-21 21:30N 61°46' E 005°10'0 0.0
2018-May-21 21:00N 61°46' E 005°10'0 0.0
2018-May-21 20:30N 61°46' E 005°10'0 0.0
2018-May-21 20:00N 61°46' E 005°10'0 0.0
2018-May-21 19:30N 61°46' E 005°10'0 0.0
2018-May-21 18:51N 61°46' E 005°10'0 0.0
2018-May-21 18:30N 61°46' E 005°10'0 0.0
2018-May-21 17:57N 61°46' E 005°10'0 0.0
2018-May-21 17:30N 61°46' E 005°10'0 0.0
2018-May-21 17:00N 61°46' E 005°10'0 0.0
2018-May-21 16:30N 61°46' E 005°10'0 0.0
2018-May-21 15:54N 61°46' E 005°10'0 0.0
2018-May-21 15:30N 61°46' E 005°10'0 0.0
2018-May-21 15:00N 61°46' E 005°10'0 0.0
2018-May-21 14:30N 61°46' E 005°10'0 0.0
2018-May-21 14:00N 61°46' E 005°10'0 0.0
2018-May-21 13:30N 61°46' E 005°10'0 0.0
2018-May-21 13:00N 61°46' E 005°10'0 0.0
2018-May-21 12:30N 61°46' E 005°10'0 0.0
2018-May-21 12:00N 61°46' E 005°10'0 0.0
2018-May-21 11:30N 61°46' E 005°10'0 0.0
2018-May-21 11:00N 61°46' E 005°10'0 0.0
2018-May-21 10:30N 61°46' E 005°10'0 0.0
2018-May-21 10:00N 61°46' E 005°10'0 0.0
2018-May-21 09:27N 61°46' E 005°10'0 0.0
2018-May-21 09:00N 61°46' E 005°10'0 0.0
2018-May-21 08:30N 61°46' E 005°10'0 0.0
2018-May-21 08:00N 61°46' E 005°10'0 0.0
2018-May-21 07:30N 61°46' E 005°10'0 0.0
2018-May-21 07:00N 61°46' E 005°10'0 0.0
2018-May-21 06:30N 61°46' E 005°10'0 0.0
2018-May-21 06:00N 61°46' E 005°10'0 0.0
2018-May-21 05:30N 61°46' E 005°10'0 0.0
2018-May-21 05:00N 61°46' E 005°10'0 0.0
2018-May-21 04:30N 61°46' E 005°10'0 0.0
2018-May-21 04:00N 61°46' E 005°10'0 0.0
2018-May-21 03:29N 61°46' E 005°10'0 0.0
2018-May-21 03:00N 61°46' E 005°10'0 0.0
2018-May-21 02:29N 61°46' E 005°10'0 0.0
2018-May-21 02:00N 61°46' E 005°10'0 0.0
2018-May-21 01:29N 61°46' E 005°10'0 0.0
2018-May-21 01:00N 61°46' E 005°10'0 0.0
2018-May-21 00:30N 61°46' E 005°10'0 0.0
2018-May-21 00:00N 61°46' E 005°10'0 0.0
2018-May-20 23:30N 61°46' E 005°10'0 0.0
2018-May-20 23:00N 61°46' E 005°10'0 0.0
2018-May-20 22:30N 61°46' E 005°10'0 0.1
2018-May-20 22:00N 61°46' E 005°10'0 0.4
2018-May-20 21:30N 61°46' E 005°10'2 3.7
2018-May-20 21:00N 61°45' E 005°07'5 9.2
2018-May-20 20:30N 61°45' E 004°57'510.6
2018-May-20 20:00N 61°42' E 004°48'611.8
2018-May-20 19:28N 61°42' E 004°34'612.3
2018-May-20 19:00N 61°39' E 004°23'11513.1
2018-May-20 10:15N 59°45' E 004°13'613.4
2018-May-20 09:47N 59°38' E 004°13'1413.4
2018-May-20 08:43N 59°24' E 004°13'413.4
2018-May-20 08:27N 59°21' E 004°13'613.4
2018-May-20 08:00N 59°15' E 004°13'713.3
2018-May-20 07:28N 59°07' E 004°13'613.5
2018-May-20 07:00N 59°01' E 004°13'713.5
2018-May-20 06:30N 58°54' E 004°16'713.1
2018-May-20 06:00N 58°48' E 004°19'612.7
2018-May-20 05:30N 58°42' E 004°22'612.8
2018-May-20 05:00N 58°36' E 004°26'612.8
2018-May-20 04:30N 58°30' E 004°30'713.2
2018-May-20 04:00N 58°24' E 004°33'713.2
2018-May-20 03:30N 58°17' E 004°37'713.1
2018-May-20 03:00N 58°11' E 004°40'612.9
2018-May-20 02:30N 58°05' E 004°44'612.4
2018-May-20 02:00N 57°59' E 004°47'612.3
2018-May-20 01:30N 57°53' E 004°51'612.7
2018-May-20 01:00N 57°47' E 004°54'713.2
2018-May-20 00:30N 57°41' E 004°58'713.2
2018-May-20 00:00N 57°34' E 005°01'713.4
2018-May-19 23:30N 57°28' E 005°06'713.0
2018-May-19 23:00N 57°22' E 005°11'613.0
2018-May-19 22:30N 57°16' E 005°15'712.8
2018-May-19 21:59N 57°10' E 005°16'613.2
2018-May-19 21:30N 57°03' E 005°19'713.1
2018-May-19 21:00N 56°57' E 005°23'613.0
2018-May-19 20:30N 56°51' E 005°26'612.9
2018-May-19 20:00N 56°45' E 005°30'612.7
2018-May-19 19:30N 56°38' E 005°32'612.9
2018-May-19 19:00N 56°32' E 005°31'712.9
2018-May-19 18:30N 56°25' E 005°29'612.9
2018-May-19 18:00N 56°19' E 005°28'712.9
2018-May-19 17:27N 56°12' E 005°27'613.0
2018-May-19 17:00N 56°06' E 005°26'713.1
2018-May-19 16:25N 55°59' E 005°25'513.0
2018-May-19 16:00N 55°53' E 005°25'713.2
2018-May-19 15:29N 55°46' E 005°23'713.0
2018-May-19 14:59N 55°40' E 005°22'613.0
2018-May-19 14:30N 55°34' E 005°21'612.9
2018-May-19 14:00N 55°27' E 005°21'612.8
2018-May-19 13:30N 55°21' E 005°20'10212.2
2018-May-19 05:06N 53°40' E 004°51'111.8
2018-May-19 04:59N 53°39' E 004°51'611.6
2018-May-19 04:30N 53°33' E 004°48'611.2
2018-May-19 04:00N 53°28' E 004°44'611.0
2018-May-19 03:30N 53°23' E 004°40'611.2
2018-May-19 03:00N 53°18' E 004°37'611.1
2018-May-19 02:30N 53°13' E 004°33'611.1
2018-May-19 02:00N 53°08' E 004°29'611.3
2018-May-19 01:30N 53°03' E 004°24'611.2
2018-May-19 01:00N 52°59' E 004°19'611.0
2018-May-19 00:30N 52°53' E 004°15'511.1
2018-May-19 00:00N 52°48' E 004°11'511.0
2018-May-18 23:30N 52°43' E 004°08'611.0
2018-May-18 23:00N 52°38' E 004°06'510.5
2018-May-18 22:30N 52°33' E 004°08'612.2
2018-May-18 22:00N 52°30' E 004°18'611.4
2018-May-18 21:30N 52°28' E 004°26'5 9.9
2018-May-18 21:01N 52°28' E 004°34'1 2.6
2018-May-18 20:30N 52°28' E 004°37'1 3.0
2018-May-18 20:00N 52°28' E 004°39'3 6.4
2018-May-18 19:30N 52°26' E 004°43'2 4.3
2018-May-18 19:01N 52°25' E 004°46'1 1.0
2018-May-18 18:28N 52°25' E 004°47'0 0.0
2018-May-18 17:58N 52°25' E 004°47'0 0.0
2018-May-18 17:28N 52°25' E 004°47'0 0.0
2018-May-18 16:58N 52°25' E 004°47'0 0.0
2018-May-18 16:28N 52°25' E 004°47'0 0.0
2018-May-18 15:58N 52°25' E 004°47'0 0.0
2018-May-18 15:28N 52°25' E 004°47'0 0.0
2018-May-18 14:58N 52°25' E 004°47'0 0.0
2018-May-18 14:28N 52°25' E 004°47'0 0.0
2018-May-18 13:58N 52°25' E 004°47'0 0.0
2018-May-18 13:28N 52°25' E 004°47'0 0.0
2018-May-18 12:58N 52°25' E 004°47'0 0.0
2018-May-18 12:28N 52°25' E 004°47'0 0.0
2018-May-18 11:58N 52°25' E 004°47'0 0.0
2018-May-18 11:28N 52°25' E 004°47'0 0.0
2018-May-18 10:58N 52°25' E 004°47'0 0.0
2018-May-18 10:28N 52°25' E 004°47'0 0.0
2018-May-18 09:58N 52°25' E 004°47'0 0.0
2018-May-18 09:28N 52°25' E 004°47'0 0.0
2018-May-18 08:58N 52°25' E 004°47'0 0.0
2018-May-18 08:28N 52°25' E 004°47'0 0.0
2018-May-18 07:58N 52°25' E 004°47'0 0.0
2018-May-18 07:28N 52°25' E 004°47'0 0.0
2018-May-18 06:58N 52°25' E 004°47'0 0.0
2018-May-18 06:28N 52°25' E 004°47'0 0.0
2018-May-18 05:58N 52°25' E 004°47'0 0.0
2018-May-18 05:28N 52°25' E 004°47'0 0.0
2018-May-18 04:58N 52°25' E 004°47'0 0.0
2018-May-18 04:28N 52°25' E 004°47'0 0.0
2018-May-18 03:58N 52°25' E 004°47'0 0.0
2018-May-18 03:28N 52°25' E 004°47'0 0.0
2018-May-18 02:58N 52°25' E 004°47'0 0.0
2018-May-18 02:28N 52°25' E 004°47'0 0.0
2018-May-18 01:58N 52°25' E 004°47'0 0.0
2018-May-18 01:28N 52°25' E 004°47'0 0.0
2018-May-18 00:58N 52°25' E 004°47'0 0.0
2018-May-18 00:28N 52°25' E 004°47'0 0.0
2018-May-17 23:58N 52°25' E 004°47'0 0.0
2018-May-17 23:28N 52°25' E 004°47'0 0.0
2018-May-17 22:58N 52°25' E 004°47'0 0.0
2018-May-17 22:28N 52°25' E 004°47'0 0.0
2018-May-17 21:58N 52°25' E 004°47'0 0.0
2018-May-17 21:28N 52°25' E 004°47'0 0.0
2018-May-17 20:58N 52°25' E 004°47'0 0.0
2018-May-17 20:28N 52°25' E 004°47'0 0.0
2018-May-17 19:58N 52°25' E 004°47'0 0.0
2018-May-17 19:28N 52°25' E 004°47'0 0.0
2018-May-17 18:58N 52°25' E 004°47'0 0.0
2018-May-17 18:28N 52°25' E 004°47'0 0.0
2018-May-17 17:58N 52°25' E 004°47'0 0.0
2018-May-17 17:28N 52°25' E 004°47'0 0.0
2018-May-17 16:58N 52°25' E 004°47'0 0.0
2018-May-17 16:28N 52°25' E 004°47'0 0.0
2018-May-17 15:58N 52°25' E 004°47'0 0.0
2018-May-17 15:28N 52°25' E 004°47'0 0.0
2018-May-17 14:58N 52°25' E 004°47'0 0.0
2018-May-17 14:28N 52°25' E 004°47'0 0.0
2018-May-17 13:58N 52°25' E 004°47'0 0.0
2018-May-17 13:28N 52°25' E 004°47'0 0.0
2018-May-17 12:58N 52°25' E 004°47'0 0.0
2018-May-17 12:28N 52°25' E 004°47'0 0.0
2018-May-17 11:58N 52°25' E 004°47'0 0.0
2018-May-17 11:28N 52°25' E 004°47'0 0.0
2018-May-17 10:58N 52°25' E 004°47'0 0.0
2018-May-17 10:28N 52°25' E 004°47'0 0.0
2018-May-17 10:00N 52°25' E 004°47'0 1.0
2018-May-17 09:30N 52°25' E 004°46'2 4.7
2018-May-17 09:00N 52°26' E 004°43'3 6.3
2018-May-17 08:30N 52°28' E 004°39'1 2.8
2018-May-17 08:01N 52°28' E 004°36'0 0.3
2018-May-17 07:30N 52°28' E 004°36'2 3.6
2018-May-17 07:01N 52°28' E 004°33'510.0
2018-May-17 06:30N 52°29' E 004°25'4 8.1
2018-May-17 06:00N 52°29' E 004°19'510.5
2018-May-17 05:30N 52°30' E 004°10'510.3
2018-May-17 05:00N 52°34' E 004°05'511.0
2018-May-17 04:30N 52°39' E 004°01'610.9
2018-May-17 04:00N 52°44' E 003°57'610.9
2018-May-17 03:29N 52°49' E 003°52'510.8
2018-May-17 03:00N 52°53' E 003°47'611.2
2018-May-17 02:29N 52°58' E 003°41'511.3
2018-May-17 02:01N 53°02' E 003°36'611.2
2018-May-17 01:30N 53°07' E 003°31'611.1
2018-May-17 01:00N 53°11' E 003°25'611.3
2018-May-17 00:29N 53°16' E 003°18'611.3
2018-May-16 23:56N 53°20' E 003°11'611.4
2018-May-16 23:24N 53°24' E 003°04'611.5
2018-May-16 22:53N 53°29' E 002°57'511.4
2018-May-16 22:28N 53°31' E 002°50'511.5
2018-May-16 22:00N 53°34' E 002°42'712.2
2018-May-16 21:23N 53°40' E 002°35'512.4
2018-May-16 20:59N 53°44' E 002°30'612.5
2018-May-16 20:30N 53°48' E 002°24'612.5
2018-May-16 20:00N 53°53' E 002°17'612.9
2018-May-16 19:30N 53°58' E 002°09'612.5
2018-May-16 19:00N 54°02' E 002°02'612.4
2018-May-16 18:30N 54°06' E 001°54'612.9
2018-May-16 18:00N 54°11' E 001°45'612.9
2018-May-16 17:30N 54°15' E 001°38'612.8
2018-May-16 17:00N 54°19' E 001°30'812.7
2018-May-16 16:22N 54°26' E 001°20'712.6
2018-May-16 15:47N 54°31' E 001°12'312.6
2018-May-16 15:30N 54°34' E 001°08'1012.7
2018-May-16 14:42N 54°43' E 001°00'312.5
2018-May-16 14:30N 54°45' E 000°58'18412.4
2018-May-15 23:38N 57°33' W 001°18'214.0
2018-May-15 23:29N 57°34' W 001°20'713.7
2018-May-15 23:00N 57°40' W 001°28'6613.0
2018-May-15 17:57N 58°31' W 002°45'613.1
2018-May-15 17:30N 58°36' W 002°52'612.4
2018-May-15 17:00N 58°40' W 002°60'5 9.7
2018-May-15 16:31N 58°43' W 003°08'5 9.1
2018-May-15 16:00N 58°43' W 003°16'5 9.2
2018-May-15 15:30N 58°43' W 003°25'510.4
2018-May-15 15:00N 58°43' W 003°35'510.4
2018-May-15 14:31N 58°42' W 003°45'5210.0
2018-May-15 09:20N 58°34' W 005°24'  

Dump ship's entire track history